createdAt,value
2018-04-29T00:00:28.376Z,13.19
2018-04-29T00:02:55.962Z,13.10
2018-04-29T00:05:24.182Z,13.08
2018-04-29T00:07:51.764Z,13.07
2018-04-29T00:10:19.350Z,13.05
2018-04-29T00:12:46.930Z,13.04
2018-04-29T00:15:14.518Z,13.07
2018-04-29T00:17:42.179Z,13.07
2018-04-29T00:20:09.758Z,13.14
2018-04-29T00:22:37.341Z,13.12
2018-04-29T00:25:04.929Z,13.09
2018-04-29T00:27:32.509Z,13.10
2018-04-29T00:30:00.994Z,13.07
2018-04-29T00:32:28.584Z,13.10
2018-04-29T00:34:56.170Z,13.07
2018-04-29T00:37:23.801Z,13.00
2018-04-29T00:39:51.406Z,12.92
2018-04-29T00:42:19.064Z,12.83
2018-04-29T00:44:46.649Z,12.75
2018-04-29T00:47:14.234Z,12.73
2018-04-29T00:49:41.813Z,12.61
2018-04-29T00:52:09.394Z,12.63
2018-04-29T00:54:36.979Z,12.52
2018-04-29T00:57:04.565Z,12.40
2018-04-29T00:59:32.188Z,12.31
2018-04-29T01:01:59.857Z,12.22
2018-04-29T01:04:27.569Z,12.11
2018-04-29T01:06:55.185Z,12.05
2018-04-29T01:09:22.797Z,11.95
2018-04-29T01:11:50.377Z,11.90
2018-04-29T01:14:18.021Z,11.85
2018-04-29T01:16:45.601Z,11.79
2018-04-29T01:19:13.185Z,11.77
2018-04-29T01:21:40.770Z,11.70
2018-04-29T01:24:08.355Z,11.64
2018-04-29T01:26:35.969Z,11.58
2018-04-29T01:29:03.585Z,11.57
2018-04-29T01:31:31.300Z,11.52
2018-04-29T01:33:58.882Z,11.45
2018-04-29T01:36:26.497Z,11.39
2018-04-29T01:38:54.077Z,11.34
2018-04-29T01:41:21.662Z,11.30
2018-04-29T01:43:49.245Z,11.26
2018-04-29T01:46:16.833Z,11.25
2018-04-29T01:48:44.419Z,11.20
2018-04-29T01:51:12.018Z,11.22
2018-04-29T01:53:39.604Z,11.21
2018-04-29T01:56:07.190Z,11.30
2018-04-29T01:58:34.809Z,11.24
2018-04-29T02:01:02.394Z,11.25
2018-04-29T02:03:29.978Z,11.26
2018-04-29T02:05:57.561Z,11.24
2018-04-29T02:08:25.140Z,11.22
2018-04-29T02:10:52.785Z,11.21
2018-04-29T02:13:20.366Z,11.20
2018-04-29T02:15:47.947Z,11.20
2018-04-29T02:18:16.312Z,11.15
2018-04-29T02:20:43.894Z,11.13
2018-04-29T02:23:11.473Z,11.02
2018-04-29T02:25:39.053Z,10.94
2018-04-29T02:28:06.641Z,10.81
2018-04-29T02:30:34.230Z,10.74
2018-04-29T02:33:01.810Z,10.75
2018-04-29T02:35:29.453Z,10.64
2018-04-29T02:37:57.041Z,10.60
2018-04-29T02:40:24.675Z,10.59
2018-04-29T02:42:52.269Z,10.53
2018-04-29T02:45:19.898Z,10.48
2018-04-29T02:47:47.527Z,10.44
2018-04-29T02:50:15.114Z,10.54
2018-04-29T02:52:42.703Z,10.46
2018-04-29T02:55:10.294Z,10.41
2018-04-29T02:57:37.882Z,10.40
2018-04-29T03:00:05.587Z,10.42
2018-04-29T03:02:33.214Z,10.43
2018-04-29T03:05:00.805Z,10.54
2018-04-29T03:07:28.426Z,10.37
2018-04-29T03:09:56.016Z,10.30
2018-04-29T03:12:23.611Z,10.23
2018-04-29T03:14:51.208Z,10.15
2018-04-29T03:17:18.828Z,10.19
2018-04-29T03:19:46.409Z,10.22
2018-04-29T03:22:13.990Z,10.18
2018-04-29T03:24:41.581Z,10.18
2018-04-29T03:27:09.161Z,10.17
2018-04-29T03:29:36.769Z,10.28
2018-04-29T03:32:04.369Z,10.39
2018-04-29T03:34:31.961Z,10.39
2018-04-29T03:36:59.553Z,10.36
2018-04-29T03:39:27.173Z,10.33
2018-04-29T03:41:54.757Z,10.32
2018-04-29T03:44:22.345Z,10.31
2018-04-29T03:46:50.007Z,10.30
2018-04-29T03:49:17.634Z,10.26
2018-04-29T03:51:45.222Z,10.21
2018-04-29T03:54:12.809Z,10.19
2018-04-29T03:56:40.453Z,10.20
2018-04-29T03:59:20.053Z,10.21
2018-04-29T04:01:59.659Z,10.24
2018-04-29T04:04:27.249Z,10.32
2018-04-29T04:06:54.833Z,10.38
2018-04-29T04:09:22.422Z,10.41
2018-04-29T04:11:50.042Z,10.45
2018-04-29T04:14:17.654Z,10.49
2018-04-29T04:16:45.241Z,10.56
2018-04-29T04:19:12.878Z,10.84
2018-04-29T04:21:40.497Z,10.95
2018-04-29T04:24:08.094Z,10.93
2018-04-29T04:26:35.678Z,10.85
2018-04-29T04:29:03.270Z,10.83
2018-04-29T04:31:30.855Z,10.85
2018-04-29T04:33:58.446Z,10.83
2018-04-29T04:36:26.101Z,10.88
2018-04-29T04:38:53.690Z,10.89
2018-04-29T04:41:21.289Z,10.93
2018-04-29T04:43:48.920Z,11.00
2018-04-29T04:46:16.505Z,11.05
2018-04-29T04:48:44.093Z,11.16
2018-04-29T04:51:11.677Z,11.19
2018-04-29T04:53:39.337Z,11.19
2018-04-29T04:56:06.925Z,11.20
2018-04-29T04:58:34.514Z,11.21
2018-04-29T05:01:02.094Z,11.20
2018-04-29T05:03:29.686Z,11.22
2018-04-29T05:05:57.346Z,11.20
2018-04-29T05:08:24.936Z,11.26
2018-04-29T05:10:52.554Z,11.23
2018-04-29T05:13:20.137Z,11.27
2018-04-29T05:15:47.756Z,11.30
2018-04-29T05:18:15.346Z,11.34
2018-04-29T05:20:42.972Z,11.41
2018-04-29T05:23:10.582Z,11.45
2018-04-29T05:25:38.166Z,11.51
2018-04-29T05:28:05.751Z,11.58
2018-04-29T05:30:33.333Z,11.68
2018-04-29T05:33:00.959Z,11.79
2018-04-29T05:35:28.653Z,11.87
2018-04-29T05:37:56.201Z,11.98
2018-04-29T05:40:23.793Z,12.07
2018-04-29T05:42:51.421Z,12.16
2018-04-29T05:45:19.005Z,12.27
2018-04-29T05:47:46.720Z,12.45
2018-04-29T05:50:15.006Z,12.71
2018-04-29T05:52:42.635Z,12.98
2018-04-29T05:55:10.229Z,13.29
2018-04-29T05:57:37.854Z,13.71
2018-04-29T06:00:05.446Z,14.04
2018-04-29T06:02:33.029Z,14.44
2018-04-29T06:05:00.647Z,14.65
2018-04-29T06:07:29.182Z,14.91
2018-04-29T06:09:56.776Z,15.15
2018-04-29T06:12:24.453Z,15.28
2018-04-29T06:14:53.109Z,15.59
2018-04-29T06:17:20.855Z,15.94
2018-04-29T06:19:48.520Z,16.20
2018-04-29T06:22:16.161Z,16.41
2018-04-29T06:24:43.741Z,16.57
2018-04-29T06:27:11.336Z,16.79
2018-04-29T06:29:39.018Z,16.66
2018-04-29T06:32:06.610Z,16.90
2018-04-29T06:34:34.189Z,17.00
2018-04-29T06:37:01.773Z,17.03
2018-04-29T06:39:29.350Z,17.23
2018-04-29T06:41:56.966Z,17.42
2018-04-29T06:44:24.616Z,17.63
2018-04-29T06:46:52.286Z,17.97
2018-04-29T06:49:19.942Z,18.11
2018-04-29T06:51:47.537Z,18.27
2018-04-29T06:54:15.118Z,18.29
2018-04-29T06:56:42.761Z,18.72
2018-04-29T06:59:10.375Z,18.83
2018-04-29T07:01:37.953Z,18.84
2018-04-29T07:04:05.535Z,18.94
2018-04-29T07:06:33.110Z,19.04
2018-04-29T07:09:00.685Z,19.02
2018-04-29T07:11:28.289Z,19.37
2018-04-29T07:13:55.874Z,19.55
2018-04-29T07:16:23.477Z,19.46
2018-04-29T07:18:51.054Z,19.18
2018-04-29T07:21:18.665Z,19.16
2018-04-29T07:23:46.282Z,19.17
2018-04-29T07:26:13.863Z,19.25
2018-04-29T07:28:41.555Z,19.03
2018-04-29T07:31:09.094Z,18.86
2018-04-29T07:33:36.674Z,18.91
2018-04-29T07:36:04.253Z,18.86
2018-04-29T07:38:31.830Z,19.10
2018-04-29T07:40:59.497Z,19.21
2018-04-29T07:43:27.135Z,19.49
2018-04-29T07:45:54.726Z,19.51
2018-04-29T07:48:22.382Z,19.82
2018-04-29T07:50:50.051Z,19.92
2018-04-29T07:53:17.633Z,19.80
2018-04-29T07:55:45.258Z,20.03
2018-04-29T07:58:12.941Z,20.13
2018-04-29T08:00:40.597Z,20.22
2018-04-29T08:03:08.130Z,20.49
2018-04-29T08:05:35.736Z,20.32
2018-04-29T08:08:03.385Z,20.33
2018-04-29T08:10:31.041Z,20.36
2018-04-29T08:12:58.618Z,20.30
2018-04-29T08:15:26.319Z,20.45
2018-04-29T08:17:53.937Z,20.45
2018-04-29T08:20:21.522Z,20.51
2018-04-29T08:22:49.195Z,20.61
2018-04-29T08:25:16.759Z,20.81
2018-04-29T08:27:44.366Z,21.31
2018-04-29T08:30:12.005Z,21.66
2018-04-29T08:32:39.586Z,21.41
2018-04-29T08:35:07.269Z,21.50
2018-04-29T08:37:34.855Z,21.13
2018-04-29T08:40:02.491Z,21.23
2018-04-29T08:42:30.208Z,21.10
2018-04-29T08:44:57.781Z,21.04
2018-04-29T08:47:25.389Z,21.11
2018-04-29T08:49:53.010Z,21.18
2018-04-29T08:52:20.585Z,20.97
2018-04-29T08:54:48.229Z,21.14
2018-04-29T08:57:16.885Z,21.14
2018-04-29T08:59:44.470Z,21.06
2018-04-29T09:02:12.046Z,20.85
2018-04-29T09:04:39.704Z,20.78
2018-04-29T09:07:07.290Z,20.75
2018-04-29T09:09:34.873Z,20.69
2018-04-29T09:12:02.456Z,20.86
2018-04-29T09:14:30.086Z,20.86
2018-04-29T09:16:57.667Z,20.78
2018-04-29T09:19:25.416Z,21.09
2018-04-29T09:21:53.004Z,21.00
2018-04-29T09:24:20.585Z,21.11
2018-04-29T09:26:48.203Z,21.18
2018-04-29T09:29:15.858Z,21.35
2018-04-29T09:31:43.517Z,21.49
2018-04-29T09:34:11.093Z,21.58
2018-04-29T09:36:38.678Z,21.69
2018-04-29T09:39:06.262Z,21.74
2018-04-29T09:41:33.838Z,21.91
2018-04-29T09:44:01.415Z,21.78
2018-04-29T09:46:28.997Z,21.85
2018-04-29T09:48:56.573Z,22.00
2018-04-29T09:51:24.157Z,22.18
2018-04-29T09:53:51.762Z,22.17
2018-04-29T09:56:19.417Z,22.32
2018-04-29T09:58:46.990Z,22.36
2018-04-29T10:01:25.216Z,22.41
2018-04-29T10:03:52.919Z,22.56
2018-04-29T10:06:20.497Z,22.53
2018-04-29T10:08:48.073Z,22.54
2018-04-29T10:11:15.646Z,22.60
2018-04-29T10:13:43.227Z,22.75
2018-04-29T10:16:10.807Z,22.82
2018-04-29T10:18:38.384Z,22.77
2018-04-29T10:21:05.997Z,22.72
2018-04-29T10:23:33.610Z,22.80
2018-04-29T10:26:01.191Z,23.13
2018-04-29T10:28:28.776Z,23.28
2018-04-29T10:30:56.418Z,23.44
2018-04-29T10:33:24.025Z,23.42
2018-04-29T10:35:51.598Z,23.54
2018-04-29T10:38:19.204Z,23.53
2018-04-29T10:40:46.851Z,23.63
2018-04-29T10:43:14.474Z,23.69
2018-04-29T10:45:42.114Z,23.88
2018-04-29T10:48:09.692Z,23.86
2018-04-29T10:50:37.270Z,23.66
2018-04-29T10:53:04.843Z,23.89
2018-04-29T10:55:32.417Z,23.87
2018-04-29T10:57:59.984Z,23.79
2018-04-29T11:00:27.641Z,23.87
2018-04-29T11:02:55.218Z,24.07
2018-04-29T11:05:22.825Z,24.19
2018-04-29T11:07:50.409Z,24.14
2018-04-29T11:10:18.917Z,24.19
2018-04-29T11:12:46.531Z,24.26
2018-04-29T11:15:14.116Z,24.27
2018-04-29T11:17:41.690Z,24.32
2018-04-29T11:20:09.256Z,24.02
2018-04-29T11:22:37.008Z,24.17
2018-04-29T11:25:04.585Z,24.42
2018-04-29T11:27:32.286Z,24.51
2018-04-29T11:29:59.878Z,24.57
2018-04-29T11:32:27.459Z,24.39
2018-04-29T11:34:55.044Z,24.33
2018-04-29T11:37:22.617Z,24.32
2018-04-29T11:39:50.225Z,24.46
2018-04-29T11:42:17.801Z,24.64
2018-04-29T11:44:45.413Z,24.76
2018-04-29T11:47:13.005Z,24.91
2018-04-29T11:49:40.608Z,24.85
2018-04-29T11:52:08.230Z,24.53
2018-04-29T11:54:35.850Z,24.76
2018-04-29T11:57:03.581Z,24.75
2018-04-29T11:59:31.153Z,25.05
2018-04-29T12:01:58.790Z,24.94
2018-04-29T12:04:26.473Z,24.91
2018-04-29T12:06:54.123Z,24.75
2018-04-29T12:09:21.703Z,24.83
2018-04-29T12:11:49.402Z,24.95
2018-04-29T12:14:17.012Z,24.73
2018-04-29T12:16:44.598Z,24.92
2018-04-29T12:19:12.241Z,24.97
2018-04-29T12:21:39.832Z,25.21
2018-04-29T12:24:07.439Z,25.40
2018-04-29T12:26:35.019Z,25.50
2018-04-29T12:29:02.598Z,25.57
2018-04-29T12:31:30.176Z,25.64
2018-04-29T12:33:57.749Z,25.52
2018-04-29T12:36:26.212Z,25.22
2018-04-29T12:38:56.378Z,25.31
2018-04-29T12:41:24.179Z,25.22
2018-04-29T12:43:51.789Z,25.18
2018-04-29T12:46:19.398Z,25.26
2018-04-29T12:48:46.977Z,25.04
2018-04-29T12:51:14.670Z,25.18
2018-04-29T12:53:42.285Z,24.91
2018-04-29T12:56:09.868Z,25.11
2018-04-29T12:58:37.453Z,25.40
2018-04-29T13:01:05.067Z,25.51
2018-04-29T13:03:32.777Z,25.50
2018-04-29T13:06:00.357Z,25.19
2018-04-29T13:08:27.934Z,25.38
2018-04-29T13:10:55.513Z,25.58
2018-04-29T13:13:23.118Z,25.31
2018-04-29T13:15:50.705Z,25.38
2018-04-29T13:18:18.282Z,25.27
2018-04-29T13:20:45.857Z,25.18
2018-04-29T13:23:13.430Z,25.03
2018-04-29T13:25:41.013Z,24.80
2018-04-29T13:28:08.589Z,24.84
2018-04-29T13:30:36.228Z,24.94
2018-04-29T13:33:03.809Z,25.22
2018-04-29T13:35:31.389Z,25.30
2018-04-29T13:37:58.961Z,25.34
2018-04-29T13:40:26.599Z,25.20
2018-04-29T13:42:54.197Z,25.40
2018-04-29T13:45:21.825Z,25.24
2018-04-29T13:47:49.435Z,25.37
2018-04-29T13:50:17.044Z,25.39
2018-04-29T13:52:44.826Z,25.44
2018-04-29T13:55:12.465Z,25.39
2018-04-29T13:57:40.051Z,25.59
2018-04-29T14:00:07.630Z,25.82
2018-04-29T14:02:35.258Z,25.70
2018-04-29T14:05:02.846Z,25.76
2018-04-29T14:07:30.426Z,25.63
2018-04-29T14:09:58.011Z,25.45
2018-04-29T14:12:25.591Z,25.26
2018-04-29T14:14:53.218Z,25.45
2018-04-29T14:17:20.829Z,25.48
2018-04-29T14:19:49.052Z,25.53
2018-04-29T14:22:16.687Z,25.75
2018-04-29T14:24:44.237Z,25.86
2018-04-29T14:27:11.889Z,25.95
2018-04-29T14:29:39.603Z,25.89
2018-04-29T14:32:07.178Z,26.14
2018-04-29T14:34:34.791Z,26.11
2018-04-29T14:37:02.373Z,26.00
2018-04-29T14:39:29.998Z,25.87
2018-04-29T14:41:57.663Z,26.28
2018-04-29T14:44:25.273Z,26.51
2018-04-29T14:46:52.846Z,26.60
2018-04-29T14:49:20.485Z,26.50
2018-04-29T14:51:48.093Z,26.40
2018-04-29T14:54:15.707Z,26.80
2018-04-29T14:56:44.130Z,26.93
2018-04-29T14:59:11.710Z,27.60
2018-04-29T15:01:39.285Z,27.85
2018-04-29T15:04:06.866Z,28.10
2018-04-29T15:06:34.493Z,27.94
2018-04-29T15:09:02.162Z,28.35
2018-04-29T15:11:29.773Z,28.53
2018-04-29T15:13:57.389Z,27.52
2018-04-29T15:16:24.969Z,27.32
2018-04-29T15:18:59.315Z,27.17
2018-04-29T15:21:26.925Z,26.66
2018-04-29T15:23:54.590Z,26.14
2018-04-29T15:26:22.170Z,26.37
2018-04-29T15:28:49.749Z,27.01
2018-04-29T15:31:17.333Z,27.22
2018-04-29T15:33:44.901Z,27.66
2018-04-29T15:36:12.476Z,27.71
2018-04-29T15:38:40.058Z,27.44
2018-04-29T15:41:07.653Z,28.05
2018-04-29T15:43:35.243Z,28.10
2018-04-29T15:46:02.829Z,28.55
2018-04-29T15:48:30.460Z,28.18
2018-04-29T15:50:58.039Z,28.35
2018-04-29T15:53:25.617Z,27.99
2018-04-29T15:55:53.195Z,27.97
2018-04-29T15:58:20.769Z,27.50
2018-04-29T16:00:48.346Z,26.77
2018-04-29T16:03:16.003Z,26.13
2018-04-29T16:05:43.580Z,25.59
2018-04-29T16:08:11.188Z,25.28
2018-04-29T16:10:38.765Z,24.89
2018-04-29T16:13:06.345Z,24.75
2018-04-29T16:15:33.923Z,24.55
2018-04-29T16:18:01.503Z,24.36
2018-04-29T16:20:29.087Z,24.33
2018-04-29T16:22:56.710Z,24.25
2018-04-29T16:25:24.323Z,24.11
2018-04-29T16:27:51.905Z,24.04
2018-04-29T16:30:19.546Z,23.87
2018-04-29T16:32:47.127Z,23.69
2018-04-29T16:35:14.760Z,23.68
2018-04-29T16:37:42.342Z,23.54
2018-04-29T16:40:09.990Z,23.32
2018-04-29T16:42:38.502Z,23.44
2018-04-29T16:45:06.071Z,23.32
2018-04-29T16:47:33.681Z,23.26
2018-04-29T16:50:01.257Z,23.12
2018-04-29T16:52:28.869Z,23.10
2018-04-29T16:54:56.448Z,23.10
2018-04-29T16:57:24.062Z,23.05
2018-04-29T16:59:51.637Z,23.01
2018-04-29T17:02:19.220Z,22.86
2018-04-29T17:04:46.842Z,22.74
2018-04-29T17:07:14.439Z,22.70
2018-04-29T17:09:42.054Z,22.68
2018-04-29T17:12:09.714Z,22.54
2018-04-29T17:14:37.380Z,22.51
2018-04-29T17:17:05.078Z,22.33
2018-04-29T17:19:32.703Z,22.34
2018-04-29T17:22:00.311Z,22.24
2018-04-29T17:24:27.890Z,22.10
2018-04-29T17:26:55.590Z,21.91
2018-04-29T17:29:23.262Z,21.77
2018-04-29T17:31:50.814Z,21.72
2018-04-29T17:34:18.474Z,21.62
2018-04-29T17:36:46.957Z,21.55
2018-04-29T17:39:14.538Z,21.57
2018-04-29T17:41:42.118Z,21.50
2018-04-29T17:44:09.771Z,21.28
2018-04-29T17:46:37.337Z,21.42
2018-04-29T17:49:04.966Z,21.26
2018-04-29T17:51:32.546Z,21.05
2018-04-29T17:54:00.123Z,21.12
2018-04-29T17:56:27.739Z,20.87
2018-04-29T17:58:55.364Z,20.79
2018-04-29T18:01:23.114Z,20.60
2018-04-29T18:03:50.686Z,20.39
2018-04-29T18:06:18.476Z,20.25
2018-04-29T18:08:46.066Z,20.26
2018-04-29T18:11:13.766Z,20.12
2018-04-29T18:13:41.461Z,19.91
2018-04-29T18:16:30.020Z,20.06
2018-04-29T18:19:10.046Z,20.01
2018-04-29T18:21:39.590Z,19.83
2018-04-29T18:24:07.459Z,19.78
2018-04-29T18:26:35.124Z,19.70
2018-04-29T18:29:02.787Z,19.79
2018-04-29T18:31:30.367Z,19.57
2018-04-29T18:33:58.018Z,19.67
2018-04-29T18:36:25.618Z,19.49
2018-04-29T18:38:53.253Z,19.52
2018-04-29T18:41:20.813Z,19.46
2018-04-29T18:43:48.434Z,19.47
2018-04-29T18:46:16.146Z,19.43
2018-04-29T18:48:43.727Z,19.38
2018-04-29T18:51:11.613Z,19.31
2018-04-29T18:53:39.042Z,19.19
2018-04-29T18:56:06.627Z,19.08
2018-04-29T18:58:34.211Z,18.90
2018-04-29T19:01:01.791Z,18.92
2018-04-29T19:03:29.375Z,19.01
2018-04-29T19:05:59.806Z,18.98
2018-04-29T19:08:27.385Z,18.82
2018-04-29T19:10:54.962Z,18.89
2018-04-29T19:13:22.542Z,18.89
2018-04-29T19:15:50.125Z,18.73
2018-04-29T19:18:17.763Z,18.69
2018-04-29T19:20:45.345Z,18.58
2018-04-29T19:23:13.126Z,18.63
2018-04-29T19:25:40.734Z,18.58
2018-04-29T19:28:08.315Z,18.55
2018-04-29T19:30:35.929Z,18.54
2018-04-29T19:33:03.538Z,18.50
2018-04-29T19:35:31.118Z,18.51
2018-04-29T19:37:58.758Z,18.45
2018-04-29T19:40:26.345Z,18.47
2018-04-29T19:42:53.930Z,18.55
2018-04-29T19:45:21.511Z,18.51
2018-04-29T19:47:49.109Z,18.50
2018-04-29T19:50:16.685Z,18.51
2018-04-29T19:52:44.264Z,18.34
2018-04-29T19:55:11.924Z,18.31
2018-04-29T19:57:39.549Z,18.23
2018-04-29T20:00:07.166Z,18.22
2018-04-29T20:02:34.745Z,18.31
2018-04-29T20:05:02.387Z,18.27
2018-04-29T20:07:30.004Z,18.19
2018-04-29T20:09:57.611Z,18.25
2018-04-29T20:12:25.194Z,18.22
2018-04-29T20:14:52.838Z,18.19
2018-04-29T20:17:20.482Z,18.24
2018-04-29T20:19:48.067Z,18.10
2018-04-29T20:22:15.638Z,17.96
2018-04-29T20:27:33.621Z,17.90
2018-04-29T20:30:01.228Z,17.71
2018-04-29T20:32:54.563Z,17.83
2018-04-29T20:35:22.175Z,17.79
2018-04-29T20:37:49.770Z,17.73
2018-04-29T20:40:18.221Z,17.64
2018-04-29T20:42:45.829Z,17.76
2018-04-29T20:45:13.405Z,17.71
2018-04-29T20:47:41.047Z,17.68
2018-04-29T20:50:08.641Z,17.64
2018-04-29T20:52:36.223Z,17.69
2018-04-29T20:55:03.827Z,17.61
2018-04-29T20:57:31.413Z,17.64
2018-04-29T20:59:58.996Z,17.60
2018-04-29T21:02:26.575Z,17.67
2018-04-29T21:04:54.178Z,17.76
2018-04-29T21:07:21.762Z,17.71
2018-04-29T21:09:49.343Z,17.77
2018-04-29T21:12:16.926Z,17.61
2018-04-29T21:14:44.539Z,17.54
2018-04-29T21:17:12.140Z,17.70
2018-04-29T21:19:39.726Z,17.55
2018-04-29T21:22:07.307Z,17.51
2018-04-29T21:24:34.894Z,17.41
2018-04-29T21:27:02.471Z,17.46
2018-04-29T21:29:30.077Z,17.44
2018-04-29T21:31:57.677Z,17.36
2018-04-29T21:34:26.226Z,17.38
2018-04-29T21:36:53.843Z,17.41
2018-04-29T21:39:21.507Z,17.27
2018-04-29T21:41:49.093Z,17.12
2018-04-29T21:44:16.727Z,17.10
2018-04-29T21:46:44.393Z,17.07
2018-04-29T21:49:11.961Z,16.95
2018-04-29T21:51:39.538Z,17.02
2018-04-29T21:54:07.113Z,16.91
2018-04-29T21:56:34.704Z,16.85
2018-04-29T21:59:02.762Z,16.92
2018-04-29T22:01:30.365Z,16.86
2018-04-29T22:03:57.970Z,16.86
2018-04-29T22:06:25.549Z,16.85
2018-04-29T22:08:53.159Z,16.67
2018-04-29T22:11:20.738Z,16.74
2018-04-29T22:13:48.337Z,16.75
2018-04-29T22:16:15.912Z,16.81
2018-04-29T22:18:43.518Z,16.50
2018-04-29T22:21:11.097Z,16.58
2018-04-29T22:23:38.672Z,16.55
2018-04-29T22:26:06.238Z,16.68
2018-04-29T22:28:33.813Z,16.58
2018-04-29T22:31:01.422Z,16.59
2018-04-29T22:33:28.997Z,16.62
2018-04-29T22:35:56.630Z,16.50
2018-04-29T22:38:24.196Z,16.50
2018-04-29T22:40:51.770Z,16.46
2018-04-29T22:43:19.349Z,16.34
2018-04-29T22:45:46.922Z,16.33
2018-04-29T22:48:14.504Z,16.20
2018-04-29T22:50:42.122Z,16.15
2018-04-29T22:53:09.703Z,16.20
2018-04-29T22:55:37.284Z,16.17
2018-04-29T22:58:04.857Z,16.05
2018-04-29T23:00:32.435Z,16.19
2018-04-29T23:03:00.043Z,16.19
2018-04-29T23:05:27.670Z,16.13
2018-04-29T23:07:55.274Z,16.13
2018-04-29T23:10:22.873Z,16.07
2018-04-29T23:12:50.450Z,16.11
2018-04-29T23:15:18.120Z,15.98
2018-04-29T23:17:45.795Z,16.02
2018-04-29T23:20:13.385Z,15.99
2018-04-29T23:22:40.957Z,15.95
2018-04-29T23:25:09.466Z,15.91
2018-04-29T23:27:37.043Z,15.99
2018-04-29T23:30:04.642Z,15.96
2018-04-29T23:32:32.222Z,15.97
2018-04-29T23:34:59.914Z,15.97
2018-04-29T23:37:27.489Z,15.98
2018-04-29T23:39:55.071Z,15.85
2018-04-29T23:42:22.641Z,15.93
2018-04-29T23:44:51.100Z,15.80
2018-04-29T23:47:18.677Z,15.70
2018-04-29T23:49:46.249Z,15.73
2018-04-29T23:52:13.822Z,15.54
2018-04-29T23:54:41.401Z,15.56
2018-04-29T23:57:09.009Z,15.67
2018-04-29T23:59:36.586Z,15.48
